createdAt,value
2023-07-02T00:00:17.001Z,7.70
2023-07-02T00:02:47.683Z,8.05
2023-07-02T00:05:15.272Z,8.50
2023-07-02T00:07:42.913Z,9.20
2023-07-02T00:10:11.991Z,8.20
2023-07-02T00:12:39.569Z,7.40
2023-07-02T00:15:07.418Z,7.00
2023-07-02T00:17:35.322Z,7.03
2023-07-02T00:20:10.067Z,9.07
2023-07-02T00:22:37.952Z,7.03
2023-07-02T00:25:05.584Z,7.23
2023-07-02T00:27:33.333Z,6.12
2023-07-02T00:30:01.212Z,5.57
2023-07-02T00:32:28.838Z,6.62
2023-07-02T00:34:56.410Z,7.82
2023-07-02T00:37:24.235Z,8.87
2023-07-02T00:39:51.819Z,9.07
2023-07-02T00:42:19.498Z,6.35
2023-07-02T00:44:47.515Z,9.02
2023-07-02T00:47:15.110Z,8.13
2023-07-02T00:49:42.673Z,10.10
2023-07-02T00:52:11.317Z,7.30
2023-07-02T00:54:38.829Z,7.07
2023-07-02T00:57:07.172Z,8.82
2023-07-02T00:59:36.929Z,8.23
2023-07-02T01:02:06.341Z,11.03
2023-07-02T01:04:34.239Z,9.65
2023-07-02T01:07:02.676Z,6.60
2023-07-02T01:09:30.253Z,8.45
2023-07-02T01:12:05.064Z,8.02
2023-07-02T01:14:45.106Z,8.13
2023-07-02T01:17:13.051Z,7.20
2023-07-02T01:19:54.407Z,8.82
2023-07-02T01:22:24.267Z,7.60
2023-07-02T01:24:52.720Z,12.05
2023-07-02T01:27:21.633Z,6.40
2023-07-02T01:29:53.439Z,9.02
2023-07-02T01:32:22.111Z,7.78
2023-07-02T01:34:54.512Z,6.75
2023-07-02T01:37:22.884Z,8.27
2023-07-02T01:39:50.562Z,6.90
2023-07-02T01:42:20.330Z,8.15
2023-07-02T01:44:50.703Z,8.90
2023-07-02T01:47:19.032Z,7.40
2023-07-02T01:49:46.893Z,6.62
2023-07-02T01:52:14.830Z,7.00
2023-07-02T01:54:42.544Z,7.80
2023-07-02T01:57:10.451Z,7.90
2023-07-02T01:59:39.046Z,7.47
2023-07-02T02:02:06.566Z,7.35
2023-07-02T02:04:37.305Z,7.33
2023-07-02T02:07:04.880Z,8.43
2023-07-02T02:09:33.729Z,6.68
2023-07-02T02:12:01.790Z,8.00
2023-07-02T02:14:29.350Z,7.75
2023-07-02T02:16:58.556Z,6.60
2023-07-02T02:19:26.348Z,7.87
2023-07-02T02:21:54.058Z,8.57
2023-07-02T02:24:21.936Z,7.70
2023-07-02T02:26:49.503Z,9.07
2023-07-02T02:29:17.087Z,8.27
2023-07-02T02:31:45.705Z,10.68
2023-07-02T02:34:13.663Z,8.30
2023-07-02T02:36:41.640Z,8.73
2023-07-02T02:39:09.528Z,9.13
2023-07-02T02:41:37.161Z,9.13
2023-07-02T02:44:04.950Z,8.75
2023-07-02T02:46:32.841Z,7.57
2023-07-02T02:49:00.407Z,9.52
2023-07-02T02:51:28.019Z,11.07
2023-07-02T02:53:55.875Z,10.20
2023-07-02T02:56:23.464Z,8.60
2023-07-02T02:58:51.021Z,7.97
2023-07-02T03:01:19.140Z,8.23
2023-07-02T03:03:47.166Z,8.60
2023-07-02T03:06:16.545Z,9.27
2023-07-02T03:08:44.684Z,9.30
2023-07-02T03:11:12.233Z,7.53
2023-07-02T03:13:39.889Z,8.02
2023-07-02T03:16:08.084Z,8.90
2023-07-02T03:18:36.386Z,8.90
2023-07-02T03:21:03.938Z,9.48
2023-07-02T03:23:31.795Z,8.90
2023-07-02T03:25:59.337Z,8.15
2023-07-02T03:28:26.907Z,9.27
2023-07-02T03:30:54.790Z,8.93
2023-07-02T03:33:22.386Z,10.57
2023-07-02T03:35:49.995Z,14.45
2023-07-02T03:38:17.920Z,10.20
2023-07-02T03:40:45.823Z,12.45
2023-07-02T03:43:13.715Z,9.13
2023-07-02T03:45:41.523Z,10.48
2023-07-02T03:48:09.123Z,11.88
2023-07-02T03:50:36.764Z,9.68
2023-07-02T03:53:04.883Z,11.55
2023-07-02T03:55:32.437Z,11.23
2023-07-02T03:57:59.966Z,11.15
2023-07-02T04:00:27.848Z,11.60
2023-07-02T04:02:55.850Z,9.95
2023-07-02T04:05:23.528Z,11.80
2023-07-02T04:07:51.126Z,10.10
2023-07-02T04:10:19.039Z,11.15
2023-07-02T04:12:46.618Z,13.50
2023-07-02T04:15:14.154Z,10.73
2023-07-02T04:17:42.039Z,12.32
2023-07-02T04:20:11.280Z,10.07
2023-07-02T04:22:39.266Z,10.95
2023-07-02T04:25:17.440Z,12.20
2023-07-02T04:27:52.201Z,11.85
2023-07-02T04:30:20.277Z,11.98
2023-07-02T04:32:48.367Z,9.00
2023-07-02T04:35:15.977Z,12.50
2023-07-02T04:37:44.180Z,10.07
2023-07-02T04:40:12.134Z,10.10
2023-07-02T04:42:40.571Z,10.43
2023-07-02T04:45:09.632Z,8.73
2023-07-02T04:47:37.385Z,9.32
2023-07-02T04:50:07.001Z,9.68
2023-07-02T04:52:35.046Z,8.52
2023-07-02T04:55:04.289Z,9.45
2023-07-02T04:57:32.206Z,12.53
2023-07-02T05:00:00.045Z,9.73
2023-07-02T05:02:27.743Z,8.20
2023-07-02T05:04:55.566Z,10.27
2023-07-02T05:07:23.622Z,7.65
2023-07-02T05:09:53.454Z,7.67
2023-07-02T05:12:21.128Z,8.40
2023-07-02T05:14:48.991Z,9.70
2023-07-02T05:17:16.530Z,8.20
2023-07-02T05:19:44.124Z,9.13
2023-07-02T05:22:11.973Z,9.07
2023-07-02T05:24:41.772Z,7.72
2023-07-02T05:27:09.305Z,8.88
2023-07-02T05:29:37.170Z,10.80
2023-07-02T05:32:05.115Z,6.40
2023-07-02T05:34:33.729Z,13.63
2023-07-02T05:37:01.816Z,6.45
2023-07-02T05:39:29.444Z,8.90
2023-07-02T05:41:57.682Z,6.03
2023-07-02T05:44:25.496Z,9.60
2023-07-02T05:46:53.069Z,6.33
2023-07-02T05:49:20.626Z,5.85
2023-07-02T05:51:48.655Z,7.25
2023-07-02T05:54:16.180Z,7.35
2023-07-02T05:56:43.861Z,7.57
2023-07-02T05:59:12.539Z,11.43
2023-07-02T06:01:40.119Z,7.53
2023-07-02T06:04:08.123Z,7.93
2023-07-02T06:06:35.758Z,10.80
2023-07-02T06:09:04.080Z,7.95
2023-07-02T06:11:31.900Z,5.03
2023-07-02T06:13:59.527Z,6.93
2023-07-02T06:16:27.974Z,5.55
2023-07-02T06:18:56.022Z,6.82
2023-07-02T06:21:24.537Z,5.90
2023-07-02T06:23:52.103Z,5.67
2023-07-02T06:26:19.990Z,6.07
2023-07-02T06:28:47.634Z,4.62
2023-07-02T06:31:15.233Z,7.30
2023-07-02T06:33:43.346Z,7.80
2023-07-02T06:36:13.313Z,5.30
2023-07-02T06:38:41.958Z,5.68
2023-07-02T06:41:09.986Z,5.70
2023-07-02T06:43:37.711Z,4.90
2023-07-02T06:46:05.395Z,5.12
2023-07-02T06:48:34.057Z,4.60
2023-07-02T06:51:01.699Z,4.18
2023-07-02T06:53:29.311Z,5.15
2023-07-02T06:55:57.187Z,5.43
2023-07-02T06:58:24.809Z,5.32
2023-07-02T07:00:52.688Z,7.53
2023-07-02T07:03:20.680Z,5.95
2023-07-02T07:05:48.356Z,5.12
2023-07-02T07:08:15.913Z,5.22
2023-07-02T07:10:43.798Z,5.18
2023-07-02T07:13:11.956Z,5.13
2023-07-02T07:15:40.228Z,4.85
2023-07-02T07:18:10.075Z,6.28
2023-07-02T07:20:39.825Z,4.90
2023-07-02T07:23:07.373Z,4.65
2023-07-02T07:25:35.164Z,6.20
2023-07-02T07:28:02.749Z,5.45
2023-07-02T07:30:32.623Z,7.55
2023-07-02T07:33:01.460Z,4.87
2023-07-02T07:35:29.110Z,6.35
2023-07-02T07:37:56.763Z,4.93
2023-07-02T07:40:24.675Z,5.43
2023-07-02T07:42:52.203Z,4.53
2023-07-02T07:45:19.715Z,6.85
2023-07-02T07:47:47.780Z,5.32
2023-07-02T07:50:15.371Z,5.00
2023-07-02T07:52:44.132Z,4.37
2023-07-02T07:55:12.114Z,4.97
2023-07-02T07:57:39.837Z,5.12
2023-07-02T08:00:13.825Z,5.90
2023-07-02T08:02:45.055Z,6.00
2023-07-02T08:05:12.905Z,4.18
2023-07-02T08:07:43.844Z,3.92
2023-07-02T08:10:11.679Z,5.07
2023-07-02T08:12:39.641Z,4.22
2023-07-02T08:15:07.788Z,5.20
2023-07-02T08:17:35.752Z,4.10
2023-07-02T08:20:05.534Z,5.15
2023-07-02T08:22:33.119Z,4.78
2023-07-02T08:25:00.649Z,4.07
2023-07-02T08:27:28.532Z,4.10
2023-07-02T08:29:56.127Z,4.25
2023-07-02T08:32:24.803Z,4.85
2023-07-02T08:34:53.695Z,5.10
2023-07-02T08:37:22.077Z,4.95
2023-07-02T08:39:52.622Z,5.00
2023-07-02T08:42:20.832Z,4.57
2023-07-02T08:44:49.197Z,8.90
2023-07-02T08:47:17.010Z,7.05
2023-07-02T08:49:49.725Z,5.78
2023-07-02T08:52:17.430Z,4.37
2023-07-02T08:54:45.307Z,6.12
2023-07-02T08:57:12.825Z,5.57
2023-07-02T08:59:40.426Z,5.80
2023-07-02T09:02:08.315Z,6.12
2023-07-02T09:04:35.995Z,6.87
2023-07-02T09:07:07.854Z,5.60
2023-07-02T09:09:49.240Z,8.00
2023-07-02T09:12:27.238Z,4.93
2023-07-02T09:15:07.615Z,7.32
2023-07-02T09:17:37.619Z,5.93
2023-07-02T09:20:10.094Z,5.00
2023-07-02T09:22:38.524Z,7.12
2023-07-02T09:25:06.724Z,4.95
2023-07-02T09:27:43.151Z,6.10
2023-07-02T09:30:19.320Z,6.33
2023-07-02T09:32:47.556Z,4.32
2023-07-02T09:35:15.806Z,5.70
2023-07-02T09:37:45.144Z,6.43
2023-07-02T09:40:13.612Z,4.75
2023-07-02T09:42:43.632Z,4.57
2023-07-02T09:45:12.092Z,6.80
2023-07-02T09:47:47.613Z,5.62
2023-07-02T09:50:17.301Z,6.07
2023-07-02T09:52:47.399Z,5.53
2023-07-02T09:55:16.264Z,5.70
2023-07-02T09:57:47.540Z,6.03
2023-07-02T10:00:16.553Z,5.03
2023-07-02T10:02:50.670Z,4.57
2023-07-02T10:05:47.479Z,5.40
2023-07-02T10:08:22.692Z,4.63
2023-07-02T10:10:50.803Z,6.05
2023-07-02T10:13:29.261Z,6.65
2023-07-02T10:16:06.824Z,6.12
2023-07-02T10:18:35.645Z,5.80
2023-07-02T10:21:15.918Z,5.97
2023-07-02T10:23:43.862Z,4.80
2023-07-02T10:26:18.389Z,6.15
2023-07-02T10:29:00.176Z,5.93
2023-07-02T10:31:27.875Z,4.68
2023-07-02T10:33:56.508Z,5.90
2023-07-02T10:36:25.856Z,4.72
2023-07-02T10:38:53.536Z,5.35
2023-07-02T10:41:30.638Z,5.07
2023-07-02T10:44:18.447Z,5.80
2023-07-02T10:46:50.392Z,4.80
2023-07-02T10:49:19.303Z,4.55
2023-07-02T10:51:58.374Z,6.50
2023-07-02T10:54:25.929Z,4.75
2023-07-02T10:56:59.982Z,5.18
2023-07-02T10:59:27.518Z,5.83
2023-07-02T11:01:57.056Z,4.65
2023-07-02T11:04:25.057Z,5.57
2023-07-02T11:06:52.679Z,5.45
2023-07-02T11:09:22.016Z,6.68
2023-07-02T11:11:57.401Z,3.83
2023-07-02T11:14:35.419Z,5.35
2023-07-02T11:17:07.727Z,6.85
2023-07-02T11:19:36.373Z,5.62
2023-07-02T11:22:04.319Z,5.05
2023-07-02T11:24:36.707Z,4.70
2023-07-02T11:27:08.482Z,7.00
2023-07-02T11:29:37.178Z,5.90
2023-07-02T11:32:12.630Z,5.95
2023-07-02T11:34:41.097Z,6.05
2023-07-02T11:37:09.034Z,7.13
2023-07-02T11:39:36.592Z,5.82
2023-07-02T11:42:04.284Z,7.32
2023-07-02T11:44:32.132Z,5.45
2023-07-02T11:46:59.818Z,4.82
2023-07-02T11:49:27.463Z,6.20
2023-07-02T11:51:55.401Z,4.55
2023-07-02T11:54:23.024Z,5.57
2023-07-02T11:56:50.665Z,6.70
2023-07-02T11:59:19.307Z,6.12
2023-07-02T12:01:46.913Z,5.00
2023-07-02T12:04:15.511Z,5.15
2023-07-02T12:06:43.205Z,4.62
2023-07-02T12:09:11.167Z,9.20
2023-07-02T12:11:39.996Z,9.85
2023-07-02T12:14:07.547Z,11.20
2023-07-02T12:16:35.170Z,10.13
2023-07-02T12:19:03.092Z,5.68
2023-07-02T12:21:30.621Z,4.10
2023-07-02T12:23:58.183Z,4.20
2023-07-02T12:26:26.100Z,4.77
2023-07-02T12:28:53.646Z,4.85
2023-07-02T12:31:21.235Z,4.72
2023-07-02T12:33:49.125Z,4.68
2023-07-02T12:36:16.683Z,4.22
2023-07-02T12:38:44.294Z,3.90
2023-07-02T12:41:12.142Z,3.00
2023-07-02T12:43:39.713Z,3.25
2023-07-02T12:46:08.112Z,3.42
2023-07-02T12:48:36.046Z,3.15
2023-07-02T12:51:03.790Z,3.17
2023-07-02T12:53:31.403Z,3.42
2023-07-02T12:55:59.235Z,2.70
2023-07-02T12:58:26.747Z,3.70
2023-07-02T13:00:56.227Z,3.08
2023-07-02T13:03:27.143Z,4.67
2023-07-02T13:05:54.801Z,3.47
2023-07-02T13:08:22.608Z,2.62
2023-07-02T13:10:50.486Z,3.55
2023-07-02T13:13:23.257Z,4.10
2023-07-02T13:15:52.219Z,4.23
2023-07-02T13:18:21.453Z,3.15
2023-07-02T13:20:49.026Z,3.15
2023-07-02T13:23:16.876Z,3.42
2023-07-02T13:25:44.389Z,3.17
2023-07-02T13:28:11.988Z,3.60
2023-07-02T13:30:39.862Z,3.65
2023-07-02T13:33:07.432Z,3.30
2023-07-02T13:35:35.118Z,3.47
2023-07-02T13:38:05.185Z,3.45
2023-07-02T13:40:32.808Z,3.23
2023-07-02T13:43:00.379Z,2.72
2023-07-02T13:45:28.189Z,3.50
2023-07-02T13:47:55.771Z,3.60
2023-07-02T13:50:23.398Z,5.05
2023-07-02T13:52:51.270Z,3.13
2023-07-02T13:55:18.875Z,3.45
2023-07-02T13:57:46.454Z,3.42
2023-07-02T14:00:14.823Z,2.87
2023-07-02T14:02:42.765Z,2.75
2023-07-02T14:05:10.597Z,2.40
2023-07-02T14:07:38.132Z,3.33
2023-07-02T14:10:06.598Z,3.40
2023-07-02T14:12:34.119Z,2.65
2023-07-02T14:15:01.704Z,2.70
2023-07-02T14:17:29.571Z,2.60
2023-07-02T14:19:57.124Z,2.95
2023-07-02T14:22:24.889Z,3.17
2023-07-02T14:24:52.814Z,3.10
2023-07-02T14:27:20.364Z,3.10
2023-07-02T14:29:48.674Z,3.30
2023-07-02T14:32:17.316Z,3.03
2023-07-02T14:34:45.164Z,6.00
2023-07-02T14:37:12.973Z,2.78
2023-07-02T14:39:43.760Z,3.12
2023-07-02T14:42:15.672Z,2.23
2023-07-02T14:44:43.551Z,2.90
2023-07-02T14:47:11.129Z,2.97
2023-07-02T14:49:38.859Z,2.90
2023-07-02T14:52:07.123Z,2.75
2023-07-02T14:54:35.398Z,2.90
2023-07-02T14:57:03.038Z,3.85
2023-07-02T14:59:30.927Z,2.75
2023-07-02T15:01:58.505Z,3.53
2023-07-02T15:04:26.238Z,3.00
2023-07-02T15:06:54.173Z,2.97
2023-07-02T15:09:21.828Z,3.03
2023-07-02T15:11:49.426Z,3.50
2023-07-02T15:14:17.295Z,2.87
2023-07-02T15:16:44.918Z,3.10
2023-07-02T15:19:13.848Z,2.77
2023-07-02T15:21:41.674Z,3.05
2023-07-02T15:24:11.356Z,3.92
2023-07-02T15:26:40.087Z,3.15
2023-07-02T15:29:08.041Z,2.80
2023-07-02T15:31:37.663Z,2.83
2023-07-02T15:34:05.292Z,7.07
2023-07-02T15:36:36.826Z,3.30
2023-07-02T15:39:04.984Z,2.97
2023-07-02T15:41:33.189Z,3.33
2023-07-02T15:44:04.374Z,3.07
2023-07-02T15:46:32.218Z,2.70
2023-07-02T15:49:03.477Z,2.87
2023-07-02T15:51:37.797Z,2.60
2023-07-02T15:54:07.910Z,3.15
2023-07-02T15:56:36.130Z,2.70
2023-07-02T15:59:06.489Z,4.00
2023-07-02T16:01:35.702Z,3.03
2023-07-02T16:04:05.619Z,2.45
2023-07-02T16:06:35.297Z,2.62
2023-07-02T16:09:05.266Z,2.43
2023-07-02T16:11:35.684Z,2.45
2023-07-02T16:14:08.932Z,4.35
2023-07-02T16:16:38.921Z,3.00
2023-07-02T16:19:08.445Z,2.90
2023-07-02T16:21:38.192Z,3.17
2023-07-02T16:24:06.036Z,2.80
2023-07-02T16:26:33.948Z,3.70
2023-07-02T16:29:01.569Z,2.83
2023-07-02T16:31:29.189Z,2.58
2023-07-02T16:33:57.065Z,2.33
2023-07-02T16:36:24.586Z,3.03
2023-07-02T16:38:52.165Z,3.47
2023-07-02T16:41:20.108Z,2.70
2023-07-02T16:43:47.728Z,3.50
2023-07-02T16:46:15.373Z,3.60
2023-07-02T16:48:43.335Z,3.85
2023-07-02T16:51:10.873Z,3.60
2023-07-02T16:53:38.508Z,2.75
2023-07-02T16:56:08.132Z,3.20
2023-07-02T16:58:35.723Z,3.53
2023-07-02T17:01:08.999Z,3.17
2023-07-02T17:03:37.181Z,2.87
2023-07-02T17:06:06.979Z,2.80
2023-07-02T17:08:37.639Z,3.40
2023-07-02T17:11:07.154Z,3.27
2023-07-02T17:13:35.258Z,2.62
2023-07-02T17:16:05.062Z,2.40
2023-07-02T17:18:34.323Z,3.08
2023-07-02T17:21:02.155Z,2.83
2023-07-02T17:23:29.829Z,2.63
2023-07-02T17:26:07.526Z,3.10
2023-07-02T17:28:35.398Z,2.87
2023-07-02T17:31:03.642Z,2.60
2023-07-02T17:33:31.319Z,3.17
2023-07-02T17:35:58.901Z,2.93
2023-07-02T17:38:26.802Z,3.90
2023-07-02T17:40:54.335Z,2.87
2023-07-02T17:43:22.013Z,2.92
2023-07-02T17:45:54.712Z,2.80
2023-07-02T17:48:25.000Z,7.87
2023-07-02T17:51:00.502Z,2.40
2023-07-02T17:53:30.370Z,4.37
2023-07-02T17:55:58.365Z,2.30
2023-07-02T17:58:25.957Z,5.00
2023-07-02T18:00:53.750Z,3.20
2023-07-02T18:03:23.040Z,3.00
2023-07-02T18:05:51.210Z,4.00
2023-07-02T18:08:19.247Z,3.62
2023-07-02T18:10:51.230Z,2.80
2023-07-02T18:13:21.358Z,2.73
2023-07-02T18:15:51.979Z,2.80
2023-07-02T18:18:21.370Z,3.30
2023-07-02T18:20:50.627Z,2.65
2023-07-02T18:23:19.059Z,2.47
2023-07-02T18:25:46.749Z,4.47
2023-07-02T18:28:17.900Z,3.20
2023-07-02T18:30:47.172Z,3.92
2023-07-02T18:33:15.950Z,3.35
2023-07-02T18:35:43.707Z,2.20
2023-07-02T18:38:11.240Z,2.33
2023-07-02T18:40:39.766Z,2.30
2023-07-02T18:43:08.042Z,2.37
2023-07-02T18:45:35.804Z,3.40
2023-07-02T18:48:04.760Z,4.45
2023-07-02T18:50:32.488Z,2.13
2023-07-02T18:53:00.764Z,3.05
2023-07-02T18:55:28.672Z,4.43
2023-07-02T18:57:56.287Z,4.25
2023-07-02T19:00:23.908Z,5.47
2023-07-02T19:02:51.859Z,6.53
2023-07-02T19:05:20.950Z,4.82
2023-07-02T19:07:49.507Z,3.28
2023-07-02T19:10:17.584Z,3.97
2023-07-02T19:12:47.100Z,2.80
2023-07-02T19:15:14.671Z,2.03
2023-07-02T19:17:44.945Z,2.50
2023-07-02T19:20:13.057Z,4.20
2023-07-02T19:22:40.606Z,2.20
2023-07-02T19:25:11.587Z,3.35
2023-07-02T19:27:41.066Z,2.50
2023-07-02T19:30:09.502Z,2.37
2023-07-02T19:32:38.299Z,2.33
2023-07-02T19:35:08.102Z,2.30
2023-07-02T19:37:36.691Z,2.65
2023-07-02T19:40:06.128Z,2.40
2023-07-02T19:42:33.970Z,2.65
2023-07-02T19:45:02.249Z,2.50
2023-07-02T19:47:31.410Z,5.07
2023-07-02T19:50:00.814Z,2.10
2023-07-02T19:52:29.566Z,2.20
2023-07-02T19:55:01.168Z,2.42
2023-07-02T19:57:28.970Z,3.47
2023-07-02T19:59:56.729Z,3.62
2023-07-02T20:02:24.506Z,3.35
2023-07-02T20:05:01.734Z,4.33
2023-07-02T20:07:29.824Z,2.45
2023-07-02T20:09:57.938Z,2.05
2023-07-02T20:12:29.503Z,2.97
2023-07-02T20:14:58.850Z,3.10
2023-07-02T20:17:29.660Z,4.17
2023-07-02T20:19:59.879Z,2.95
2023-07-02T20:22:28.188Z,2.90
2023-07-02T20:25:03.885Z,1.87
2023-07-02T20:27:36.004Z,1.95
2023-07-02T20:30:04.152Z,2.73
2023-07-02T20:32:31.812Z,3.85
2023-07-02T20:34:59.829Z,3.00
2023-07-02T20:37:27.711Z,2.00
2023-07-02T20:39:55.406Z,2.40
2023-07-02T20:42:23.280Z,2.33
2023-07-02T20:44:51.204Z,2.22
2023-07-02T20:47:22.308Z,3.35
2023-07-02T20:49:51.335Z,3.08
2023-07-02T20:52:25.138Z,2.10
2023-07-02T20:54:54.599Z,1.87
2023-07-02T20:57:23.277Z,4.10
2023-07-02T20:59:51.723Z,2.47
2023-07-02T21:02:20.704Z,3.17
2023-07-02T21:04:50.171Z,9.65
2023-07-02T21:07:17.857Z,1.63
2023-07-02T21:09:45.762Z,3.67
2023-07-02T21:12:13.358Z,2.40
2023-07-02T21:14:40.968Z,2.70
2023-07-02T21:17:11.806Z,4.20
2023-07-02T21:19:39.368Z,2.83
2023-07-02T21:22:06.909Z,2.83
2023-07-02T21:24:35.716Z,4.32
2023-07-02T21:27:03.724Z,2.12
2023-07-02T21:29:31.596Z,2.53
2023-07-02T21:31:59.510Z,3.13
2023-07-02T21:34:27.069Z,3.58
2023-07-02T21:36:54.669Z,3.78
2023-07-02T21:39:22.541Z,5.75
2023-07-02T21:41:50.116Z,4.00
2023-07-02T21:44:19.390Z,3.63
2023-07-02T21:46:47.348Z,5.47
2023-07-02T21:49:14.991Z,2.20
2023-07-02T21:51:42.536Z,2.47
2023-07-02T21:54:10.360Z,3.75
2023-07-02T21:56:38.296Z,5.03
2023-07-02T21:59:05.837Z,3.95
2023-07-02T22:01:33.756Z,2.72
2023-07-02T22:04:01.613Z,2.05
2023-07-02T22:06:29.121Z,3.80
2023-07-02T22:08:56.687Z,3.80
2023-07-02T22:11:26.007Z,3.12
2023-07-02T22:13:53.618Z,3.35
2023-07-02T22:16:21.297Z,3.35
2023-07-02T22:18:49.241Z,2.70
2023-07-02T22:21:17.873Z,2.80
2023-07-02T22:23:49.186Z,2.70
2023-07-02T22:26:17.151Z,5.97
2023-07-02T22:28:44.833Z,2.87
2023-07-02T22:31:12.408Z,4.00
2023-07-02T22:33:40.390Z,5.20
2023-07-02T22:36:08.905Z,4.37
2023-07-02T22:38:36.829Z,3.83
2023-07-02T22:41:04.653Z,3.47
2023-07-02T22:43:32.168Z,4.65
2023-07-02T22:45:59.756Z,3.37
2023-07-02T22:48:27.637Z,4.57
2023-07-02T22:50:56.318Z,3.35
2023-07-02T22:53:25.203Z,5.30
2023-07-02T22:55:53.184Z,2.90
2023-07-02T22:58:20.929Z,3.53
2023-07-02T23:00:48.447Z,2.92
2023-07-02T23:03:16.403Z,6.18
2023-07-02T23:05:44.082Z,4.65
2023-07-02T23:08:13.188Z,3.53
2023-07-02T23:10:40.985Z,4.07
2023-07-02T23:13:08.666Z,3.42
2023-07-02T23:15:36.276Z,4.10
2023-07-02T23:18:04.167Z,4.32
2023-07-02T23:20:31.719Z,5.20
2023-07-02T23:23:02.795Z,3.67
2023-07-02T23:25:31.311Z,4.93
2023-07-02T23:28:04.195Z,3.95
2023-07-02T23:30:35.155Z,3.65
2023-07-02T23:33:11.045Z,3.45
2023-07-02T23:35:40.036Z,6.30
2023-07-02T23:38:08.738Z,5.75
2023-07-02T23:40:37.015Z,3.75
2023-07-02T23:43:05.341Z,3.65
2023-07-02T23:45:33.017Z,3.72
2023-07-02T23:48:00.625Z,3.80
2023-07-02T23:50:28.604Z,3.92
2023-07-02T23:52:56.298Z,5.32
2023-07-02T23:55:23.880Z,6.22
2023-07-02T23:57:51.804Z,4.40
